Πλησιέστερες Αναφορές METAR

 

LGTS - Thessaloniki/Makedonia-Elev 7m
Distance from station: Ν 13km
Ενημερώθηκε: 09/04/2020 07:50
Αίθριος
Αίθριος
 Ανεμος από ΑΝΑ
Ανεμος: ΑΝΑ 7 km/h
Θερμοκρασία: 5°C
Wind Chill: 3°C
Σημείο Δρόσου: 2°C
Υγρασία: 81%
Βαρόμετρο: 1021 hPa
Συνθήκες: Αίθριος
Visibility: greater than 10 km
2020/04/09 04:50 LGTS 090450Z 12004KT CAVOK 05/02 Q1021 NOSIG
LGAV - Athens/Elef. Venizelos-Elev 94m
Distance from station: ΝΝΑ 312km
Ενημερώθηκε: 09/04/2020 07:50
Few Clouds
Few Clouds
 Ανεμος από ΒΒΑ
Ανεμος: ΒΒΑ 28 km/h, Ριπή: 46 km/h
Θερμοκρασία: 10°C
Wind Chill: 7°C
Σημείο Δρόσου: -2°C
Υγρασία: 43%
Βαρόμετρο: 1017 hPa
Clouds: Few Clouds
Visibility: 10 km
Cloud details: Few Clouds 914 m
2020/04/09 04:50 LGAV 090450Z 03015G25KT 9999 FEW030 10/M02 Q1017 NOSIG
 
LGAL - Alexandroupolis-Elev 3m
Distance from station: Α 251km
Ενημερώθηκε: 08/04/2020 20:50
Μη Ενημερωμένο!
Αίθριος
Αίθριος
 Ανεμος από ΒΑ
Ανεμος: ΒΑ 20 km/h
Θερμοκρασία: 12°C
Σημείο Δρόσου: -2°C
Υγρασία: 38%
Βαρόμετρο: 1021 hPa
Συνθήκες: Αίθριος
Visibility: greater than 10 km
2020/04/08 17:50 LGAL 081750Z 05011KT CAVOK 12/M02 Q1021
LGKV - Kavala/Crysoupolis-Elev 5m
Distance from station: ΑΒΑ 144km
Ενημερώθηκε: 09/04/2020 07:50
Αίθριος
Αίθριος
 Ανεμος από Ν
Ανεμος: Ν 7 km/h
Θερμοκρασία: 7°C
Wind Chill: 6°C
Σημείο Δρόσου: 4°C
Υγρασία: 81%
Βαρόμετρο: 1020 hPa
Συνθήκες: Αίθριος
Visibility: greater than 10 km
2020/04/09 04:50 LGKV 090450Z 19004KT CAVOK 07/04 Q1020
 
LGSK - Skiathos Island-Elev 15m
Distance from station: ΝΝΑ 168km
Ενημερώθηκε: 08/04/2020 14:50
Μη Ενημερωμένο!
Few Clouds
Few Clouds
 Ανεμος από ΒΒΑ
Ανεμος: ΒΒΑ 19 km/h
Θερμοκρασία: 15°C
Σημείο Δρόσου: 4°C
Υγρασία: 48%
Βαρόμετρο: 1024 hPa
Clouds: Few Clouds
Visibility: 10 km
Cloud details: Few Clouds 610 m
2020/04/08 11:50 LGSK 081150Z 02010KT 9999 FEW020 15/04 Q1024
LGLM - Limnos Island-Elev 5m
Distance from station: ΑΝΑ 210km
Ενημερώθηκε: 09/04/2020 07:50
Αίθριος
Αίθριος
 Ανεμος από ΒΑ
Ανεμος: ΒΑ 31 km/h, Ριπή: 52 km/h
Θερμοκρασία: 9°C
Wind Chill: 5°C
Σημείο Δρόσου: 1°C
Υγρασία: 58%
Βαρόμετρο: 1019 hPa
Συνθήκες: Αίθριος
Visibility: greater than 10 km
2020/04/09 04:50 LGLM 090450Z 05017G28KT CAVOK 09/01 Q1019
 
LGMT - Mitilini Island-Elev 17m
Distance from station: ΑΝΑ 358km
Ενημερώθηκε: 09/04/2020 07:50
Αίθριος
Αίθριος
 Ανεμος από ΔΒΔ
Ανεμος: ΔΒΔ 6 km/h
Θερμοκρασία: 8°C
Σημείο Δρόσου: 4°C
Υγρασία: 76%
Βαρόμετρο: 1017 hPa
Συνθήκες: Αίθριος
Visibility: greater than 10 km
2020/04/09 04:50 LGMT 090450Z 29003KT CAVOK 08/04 Q1017
LGSY - Skiros Island-Elev 15m
Distance from station: ΝΑ 227km
Ενημερώθηκε: 09/04/2020 07:50
Few Clouds
Few Clouds
 Ανεμος από ΒΒΑ
Ανεμος: ΒΒΑ 28 km/h, Ριπή: 46 km/h
Θερμοκρασία: 11°C
Σημείο Δρόσου: 3°C
Υγρασία: 58%
Βαρόμετρο: 1019 hPa
Clouds: Few Clouds
Visibility: 10 km
Cloud details: Few Clouds 610 m
2020/04/09 04:50 LGSY 090450Z 02015G25KT 9999 FEW020 11/03 Q1019 RMK SCT180 BLU
 
LGKZ - Kozani-Elev 628m
Distance from station: ΔΝΔ 102km
Ενημερώθηκε: 09/04/2020 07:50
Few Clouds
Few Clouds
 Ανεμος από calm
Ανεμος: Απνοια
Θερμοκρασία: 5°C
Σημείο Δρόσου: -5°C
Υγρασία: 49%
Βαρόμετρο: 1022 hPa
Clouds: Few Clouds
Visibility: 10 km
Cloud details: Few Clouds 2134 m
2020/04/09 04:50 LGKZ 090450Z 00000KT 9999 FEW070 05/M05 Q1022
LGIO - Ioannina-Elev 476m
Distance from station: ΔΝΔ 209km
Ενημερώθηκε: 09/04/2020 07:50

 Ανεμος από varies
Ανεμος: varies 4 km/h
Θερμοκρασία: 0°C
Σημείο Δρόσου: -3°C
Υγρασία: 80%
Βαρόμετρο: 1020 hPa
2020/04/09 04:50 LGIO 090450Z AUTO VRB02KT //// // ////// 00/M03 Q1020 RE//
 
LGZA - Zakinthos-Elev 3m
Distance from station: ΝΝΔ 367km
Ενημερώθηκε: 08/04/2020 12:50
Μη Ενημερωμένο!
Few Clouds
Few Clouds
 Ανεμος από Β
Ανεμος: Β 22 km/h
Θερμοκρασία: 17°C
Σημείο Δρόσου: 2°C
Υγρασία: 37%
Βαρόμετρο: 1021 hPa
Clouds: Few Clouds
Visibility: 10 km
Cloud details: Few Clouds 2134 m
2020/04/08 09:50 LGZA 080950Z 36012KT 9999 FEW070 17/02 Q1021
LGKR - Corfu Island-Elev 2m
Distance from station: ΔΝΔ 282km
Ενημερώθηκε: 09/04/2020 07:50
Αίθριος
Αίθριος
 Ανεμος από Δ
Ανεμος: Δ 4 km/h
Θερμοκρασία: 7°C
Σημείο Δρόσου: 6°C
Υγρασία: 93%
Βαρόμετρο: 1019 hPa
Συνθήκες: Αίθριος
Visibility: greater than 10 km
2020/04/09 04:50 LGKR 090450Z 28002KT CAVOK 07/06 Q1019 NOSIG
 
LGSO - Syros Island-Elev 72m
Distance from station: ΝΝΑ 397km
Ενημερώθηκε: 09/04/2020 07:50
Ασθενής βροχή
Ασθενής βροχή
 Ανεμος από Β
Ανεμος: Β 43 km/h
Θερμοκρασία: 11°C
Σημείο Δρόσου: 6°C
Υγρασία: 72%
Βαρόμετρο: 1015 hPa
Συνθήκες: Ασθενής βροχή
2020/04/09 04:50 LGSO 090450Z AUTO 36023KT //// -RA ////// 11/06 Q1015 RE//
LGMK - Mikonos Island-Elev 123m
Distance from station: ΝΝΑ 412km
Ενημερώθηκε: 08/04/2020 21:20
Μη Ενημερωμένο!
Few Clouds
Few Clouds
 Ανεμος από ΒΒΔ
Ανεμος: ΒΒΔ 33 km/h
Θερμοκρασία: 14°C
Σημείο Δρόσου: 5°C
Υγρασία: 55%
Βαρόμετρο: 1016 hPa
Clouds: Few Clouds
Visibility: 10 km
Cloud details: Few Clouds 610 m
2020/04/08 18:20 LGMK 081820Z 34018KT 9999 FEW020 14/05 Q1016
 
LGSR - Santorini Island-Elev 40m
Distance from station: ΝΝΑ 520km
Ενημερώθηκε: 08/04/2020 20:50
Μη Ενημερωμένο!
Μερικώς νεφελώδης
Μερικώς νεφελώδης
 Ανεμος από Β
Ανεμος: Β 28 km/h
Θερμοκρασία: 14°C
Σημείο Δρόσου: 7°C
Υγρασία: 63%
Βαρόμετρο: 1016 hPa
Clouds: Μερικώς νεφελώδης
Visibility: 10 km
Cloud details: Μερικώς νεφελώδης 762 m
2020/04/08 17:50 LGSR 081750Z 35015KT 9999 SCT025 14/07 Q1016
LGKL - Kalamata-Elev 8m
Distance from station: Ν 405km
Ενημερώθηκε: 09/04/2020 07:50
Αίθριος
Αίθριος
 Ανεμος από ΒΔ
Ανεμος: ΒΔ 7 km/h
Θερμοκρασία: 3°C
Wind Chill: 1°C
Σημείο Δρόσου: 0°C
Υγρασία: 81%
Βαρόμετρο: 1018 hPa
Συνθήκες: Αίθριος
Visibility: greater than 10 km
2020/04/09 04:50 LGKL 090450Z 32004KT CAVOK 03/00 Q1018
 
LGIR - Iraklion/Crete-Elev 5m
Distance from station: ΝΝΑ 622km
Ενημερώθηκε: 09/04/2020 07:50
Μερικώς νεφελώδης
Μερικώς νεφελώδης
 Ανεμος από ΔΒΔ
Ανεμος: ΔΒΔ 26 km/h
Θερμοκρασία: 13°C
Σημείο Δρόσου: 6°C
Υγρασία: 63%
Βαρόμετρο: 1015 hPa
Clouds: Μερικώς νεφελώδης
Visibility: 10 km
Cloud details: Few Clouds 549 m
Μερικώς νεφελώδης 762 m
2020/04/09 04:50 LGIR 090450Z 30014KT 9999 FEW018 SCT025 13/06 Q1015 NOSIG
LGRP - Rhodes-Elev 5m
Distance from station: ΝΑ 649km
Ενημερώθηκε: 09/04/2020 07:50
Few Clouds
Few Clouds
 Ανεμος από ΔΒΔ
Ανεμος: ΔΒΔ 15 km/h
Θερμοκρασία: 15°C
Σημείο Δρόσου: 12°C
Υγρασία: 82%
Βαρόμετρο: 1011 hPa
Clouds: Few Clouds
Visibility: 10 km
Cloud details: Few Clouds 549 m
2020/04/09 04:50 LGRP 090450Z 29008KT 9999 FEW018 15/12 Q1011 NOSIG
 
LWOH - Ohrid/FYROM-Elev 761m
Distance from station: ΔΒΔ 188km
Ενημερώθηκε: 09/04/2020 08:00
Αίθριος
Αίθριος
 Ανεμος από Β
Ανεμος: Β 11 km/h
Θερμοκρασία: 2°C
Wind Chill: -1°C
Σημείο Δρόσου: -5°C
Υγρασία: 60%
Βαρόμετρο: 1022 hPa
Συνθήκες: Αίθριος
Visibility: greater than 10 km
2020/04/09 05:00 LWOH 090500Z 35006KT CAVOK 02/M05 Q1022
LBSF - Sofia/Bulgaria-Elev 595m
Distance from station: Β 227km
Ενημερώθηκε: 09/04/2020 08:00
Μερικώς νεφελώδης
Μερικώς νεφελώδης
 Ανεμος από ΑΒΑ
Ανεμος: ΑΒΑ 6 km/h
Θερμοκρασία: 2°C
Σημείο Δρόσου: -2°C
Υγρασία: 75%
Βαρόμετρο: 1023 hPa
Clouds: Μερικώς νεφελώδης
Visibility: 8 km
2020/04/09 05:00 LBSF 090500Z 06003KT 010V080 8000 NSC 02/M02 Q1023 TEMPO 5000 BR
Σημερινά ρεκόρ Μετεωρολογικού Σταθμού
Δεν έχει σημειωθεί νέο ρεκόρ μέχρι τις 08:14 σήμερα - 9/4/2020